sensor_id;sensor_type;location;lat;lon;timestamp;temperature;humidity
43862;DHT22;29510;52.140;5.034;2023-08-06T00:08:08;14.90;99.90
43862;DHT22;29510;52.140;5.034;2023-08-06T00:18:08;14.90;99.90
43862;DHT22;29510;52.140;5.034;2023-08-06T00:28:09;14.90;99.90
43862;DHT22;29510;52.140;5.034;2023-08-06T00:38:09;15.00;99.90
43862;DHT22;29510;52.140;5.034;2023-08-06T00:48:10;15.00;99.90
43862;DHT22;29510;52.140;5.034;2023-08-06T00:58:12;14.90;99.90
43862;DHT22;29510;52.140;5.034;2023-08-06T01:08:19;14.90;99.90
43862;DHT22;29510;52.140;5.034;2023-08-06T01:18:22;14.90;99.90
43862;DHT22;29510;52.140;5.034;2023-08-06T01:38:32;14.90;99.90
43862;DHT22;29510;52.140;5.034;2023-08-06T01:48:33;14.90;99.90
43862;DHT22;29510;52.140;5.034;2023-08-06T01:58:33;14.90;99.90
43862;DHT22;29510;52.140;5.034;2023-08-06T02:08:34;14.90;99.90
43862;DHT22;29510;52.140;5.034;2023-08-06T02:18:34;14.80;99.90
43862;DHT22;29510;52.140;5.034;2023-08-06T02:28:35;14.90;99.90
43862;DHT22;29510;52.140;5.034;2023-08-06T02:38:39;14.80;99.90
43862;DHT22;29510;52.140;5.034;2023-08-06T02:48:39;14.80;99.90
43862;DHT22;29510;52.140;5.034;2023-08-06T02:58:40;14.80;99.90
43862;DHT22;29510;52.140;5.034;2023-08-06T03:08:40;14.80;99.90
43862;DHT22;29510;52.140;5.034;2023-08-06T03:18:41;14.80;99.90
43862;DHT22;29510;52.140;5.034;2023-08-06T03:28:41;14.80;99.90
43862;DHT22;29510;52.140;5.034;2023-08-06T03:38:42;14.80;99.90
43862;DHT22;29510;52.140;5.034;2023-08-06T03:48:42;14.80;99.90
43862;DHT22;29510;52.140;5.034;2023-08-06T03:58:43;14.80;99.90
43862;DHT22;29510;52.140;5.034;2023-08-06T04:08:44;14.80;99.90
43862;DHT22;29510;52.140;5.034;2023-08-06T04:18:44;14.80;99.90
43862;DHT22;29510;52.140;5.034;2023-08-06T04:28:46;14.80;99.90
43862;DHT22;29510;52.140;5.034;2023-08-06T04:38:46;14.80;99.90
43862;DHT22;29510;52.140;5.034;2023-08-06T04:48:47;14.80;99.90
43862;DHT22;29510;52.140;5.034;2023-08-06T04:58:48;14.70;99.90
43862;DHT22;29510;52.140;5.034;2023-08-06T05:08:49;14.70;99.90
43862;DHT22;29510;52.140;5.034;2023-08-06T05:18:49;14.80;99.90
43862;DHT22;29510;52.140;5.034;2023-08-06T05:28:50;14.70;99.90
43862;DHT22;29510;52.140;5.034;2023-08-06T05:38:50;14.60;99.90
43862;DHT22;29510;52.140;5.034;2023-08-06T05:48:51;14.60;99.90
43862;DHT22;29510;52.140;5.034;2023-08-06T05:58:51;14.60;99.90
43862;DHT22;29510;52.140;5.034;2023-08-06T06:08:53;14.60;99.90
43862;DHT22;29510;52.140;5.034;2023-08-06T06:18:55;14.40;99.90
43862;DHT22;29510;52.140;5.034;2023-08-06T06:28:57;14.40;99.90
43862;DHT22;29510;52.140;5.034;2023-08-06T06:38:58;14.40;99.90
43862;DHT22;29510;52.140;5.034;2023-08-06T06:48:58;14.50;99.90
43862;DHT22;29510;52.140;5.034;2023-08-06T06:58:59;14.60;99.90
43862;DHT22;29510;52.140;5.034;2023-08-06T07:09:00;14.60;99.90
43862;DHT22;29510;52.140;5.034;2023-08-06T07:19:01;14.80;99.90
43862;DHT22;29510;52.140;5.034;2023-08-06T07:29:01;14.90;99.90
43862;DHT22;29510;52.140;5.034;2023-08-06T07:39:03;14.70;99.90
43862;DHT22;29510;52.140;5.034;2023-08-06T07:49:06;14.80;99.90
43862;DHT22;29510;52.140;5.034;2023-08-06T07:59:07;14.90;99.90
43862;DHT22;29510;52.140;5.034;2023-08-06T08:09:07;15.00;99.90
43862;DHT22;29510;52.140;5.034;2023-08-06T08:19:08;15.00;99.90
43862;DHT22;29510;52.140;5.034;2023-08-06T08:29:08;15.10;99.90
43862;DHT22;29510;52.140;5.034;2023-08-06T08:39:09;15.20;99.90
43862;DHT22;29510;52.140;5.034;2023-08-06T08:49:10;15.20;99.90
43862;DHT22;29510;52.140;5.034;2023-08-06T08:59:11;15.20;99.90
43862;DHT22;29510;52.140;5.034;2023-08-06T09:09:16;15.40;99.90
43862;DHT22;29510;52.140;5.034;2023-08-06T09:19:17;15.40;99.90
43862;DHT22;29510;52.140;5.034;2023-08-06T09:29:18;15.50;99.90
43862;DHT22;29510;52.140;5.034;2023-08-06T09:39:19;15.60;99.90
43862;DHT22;29510;52.140;5.034;2023-08-06T09:59:33;15.40;99.90
43862;DHT22;29510;52.140;5.034;2023-08-06T10:09:34;15.40;99.90
43862;DHT22;29510;52.140;5.034;2023-08-06T10:19:35;15.60;99.90
43862;DHT22;29510;52.140;5.034;2023-08-06T10:29:37;15.60;99.90
43862;DHT22;29510;52.140;5.034;2023-08-06T10:39:48;15.60;99.90
43862;DHT22;29510;52.140;5.034;2023-08-06T10:49:50;15.60;99.90
43862;DHT22;29510;52.140;5.034;2023-08-06T10:59:50;15.60;99.90
43862;DHT22;29510;52.140;5.034;2023-08-06T11:09:51;15.70;99.90
43862;DHT22;29510;52.140;5.034;2023-08-06T11:19:53;15.70;99.90
43862;DHT22;29510;52.140;5.034;2023-08-06T11:29:54;15.70;99.90
43862;DHT22;29510;52.140;5.034;2023-08-06T11:39:55;15.60;99.90
43862;DHT22;29510;52.140;5.034;2023-08-06T11:49:56;15.50;99.90
43862;DHT22;29510;52.140;5.034;2023-08-06T11:59:57;15.60;99.90
43862;DHT22;29510;52.140;5.034;2023-08-06T12:09:59;15.40;99.90
43862;DHT22;29510;52.140;5.034;2023-08-06T12:20:00;15.50;99.90
43862;DHT22;29510;52.140;5.034;2023-08-06T12:30:02;15.60;99.90
43862;DHT22;29510;52.140;5.034;2023-08-06T12:40:04;15.80;99.90
43862;DHT22;29510;52.140;5.034;2023-08-06T12:50:05;15.90;99.90
43862;DHT22;29510;52.140;5.034;2023-08-06T13:00:06;16.00;99.90
43862;DHT22;29510;52.140;5.034;2023-08-06T13:10:07;16.00;99.90
43862;DHT22;29510;52.140;5.034;2023-08-06T13:20:08;16.00;99.90
43862;DHT22;29510;52.140;5.034;2023-08-06T13:30:09;16.00;99.90
43862;DHT22;29510;52.140;5.034;2023-08-06T13:40:10;16.10;99.90
43862;DHT22;29510;52.140;5.034;2023-08-06T13:50:11;16.10;99.90
43862;DHT22;29510;52.140;5.034;2023-08-06T14:00:12;16.00;99.90
43862;DHT22;29510;52.140;5.034;2023-08-06T14:10:13;15.90;99.90
43862;DHT22;29510;52.140;5.034;2023-08-06T14:20:13;15.90;99.90
43862;DHT22;29510;52.140;5.034;2023-08-06T14:30:14;15.80;99.90
43862;DHT22;29510;52.140;5.034;2023-08-06T14:40:15;15.70;99.90
43862;DHT22;29510;52.140;5.034;2023-08-06T14:50:15;15.40;99.90
43862;DHT22;29510;52.140;5.034;2023-08-06T15:00:16;15.20;99.90
43862;DHT22;29510;52.140;5.034;2023-08-06T15:10:16;15.10;99.90
43862;DHT22;29510;52.140;5.034;2023-08-06T15:20:17;15.10;99.90
43862;DHT22;29510;52.140;5.034;2023-08-06T15:30:18;14.80;99.90
43862;DHT22;29510;52.140;5.034;2023-08-06T15:40:20;14.70;99.90
43862;DHT22;29510;52.140;5.034;2023-08-06T15:50:20;14.80;99.90
43862;DHT22;29510;52.140;5.034;2023-08-06T16:00:21;14.70;99.90
43862;DHT22;29510;52.140;5.034;2023-08-06T16:10:22;14.80;99.90
43862;DHT22;29510;52.140;5.034;2023-08-06T16:20:22;14.80;99.90
43862;DHT22;29510;52.140;5.034;2023-08-06T16:30:23;15.00;99.90
43862;DHT22;29510;52.140;5.034;2023-08-06T16:40:24;15.10;99.90
43862;DHT22;29510;52.140;5.034;2023-08-06T16:50:25;15.20;98.10
43862;DHT22;29510;52.140;5.034;2023-08-06T17:00:26;15.10;76.80
43862;DHT22;29510;52.140;5.034;2023-08-06T17:10:30;15.10;83.80
43862;DHT22;29510;52.140;5.034;2023-08-06T17:20:30;15.20;84.60
43862;DHT22;29510;52.140;5.034;2023-08-06T17:30:31;15.30;55.40
43862;DHT22;29510;52.140;5.034;2023-08-06T17:40:34;15.30;22.40
43862;DHT22;29510;52.140;5.034;2023-08-06T17:50:35;15.20;2.00
43862;DHT22;29510;52.140;5.034;2023-08-06T18:00:35;15.20;1.00
43862;DHT22;29510;52.140;5.034;2023-08-06T18:10:36;14.90;49.50
43862;DHT22;29510;52.140;5.034;2023-08-06T18:20:37;14.80;76.40
43862;DHT22;29510;52.140;5.034;2023-08-06T18:30:39;14.70;99.90
43862;DHT22;29510;52.140;5.034;2023-08-06T18:40:40;14.60;99.90
43862;DHT22;29510;52.140;5.034;2023-08-06T18:50:42;14.60;99.90
43862;DHT22;29510;52.140;5.034;2023-08-06T19:00:43;14.60;99.90
43862;DHT22;29510;52.140;5.034;2023-08-06T19:10:44;14.40;99.90
43862;DHT22;29510;52.140;5.034;2023-08-06T19:20:45;14.30;99.90
43862;DHT22;29510;52.140;5.034;2023-08-06T19:30:49;14.30;99.90
43862;DHT22;29510;52.140;5.034;2023-08-06T19:40:51;14.20;99.90
43862;DHT22;29510;52.140;5.034;2023-08-06T19:50:52;14.20;99.90
43862;DHT22;29510;52.140;5.034;2023-08-06T20:00:54;14.20;99.90
43862;DHT22;29510;52.140;5.034;2023-08-06T20:10:57;14.10;99.90
43862;DHT22;29510;52.140;5.034;2023-08-06T20:21:00;14.20;99.90
43862;DHT22;29510;52.140;5.034;2023-08-06T20:31:00;14.20;99.90
43862;DHT22;29510;52.140;5.034;2023-08-06T20:41:01;14.10;99.90
43862;DHT22;29510;52.140;5.034;2023-08-06T20:51:01;14.10;99.90
43862;DHT22;29510;52.140;5.034;2023-08-06T21:01:02;14.00;99.90
43862;DHT22;29510;52.140;5.034;2023-08-06T21:11:03;14.00;99.90
43862;DHT22;29510;52.140;5.034;2023-08-06T21:21:04;13.90;99.90
43862;DHT22;29510;52.140;5.034;2023-08-06T21:31:09;13.90;99.90
43862;DHT22;29510;52.140;5.034;2023-08-06T21:41:11;13.90;99.90
43862;DHT22;29510;52.140;5.034;2023-08-06T21:51:21;13.80;99.90
43862;DHT22;29510;52.140;5.034;2023-08-06T22:01:21;13.80;99.90
43862;DHT22;29510;52.140;5.034;2023-08-06T22:11:22;13.80;99.90
43862;DHT22;29510;52.140;5.034;2023-08-06T22:21:24;13.90;99.90
43862;DHT22;29510;52.140;5.034;2023-08-06T22:31:24;13.90;99.90
43862;DHT22;29510;52.140;5.034;2023-08-06T22:41:25;13.90;82.80
43862;DHT22;29510;52.140;5.034;2023-08-06T22:51:26;14.00;76.10
43862;DHT22;29510;52.140;5.034;2023-08-06T23:01:26;14.10;99.90
43862;DHT22;29510;52.140;5.034;2023-08-06T23:11:27;14.20;99.90
43862;DHT22;29510;52.140;5.034;2023-08-06T23:21:27;14.10;96.50
43862;DHT22;29510;52.140;5.034;2023-08-06T23:31:28;14.00;99.90
43862;DHT22;29510;52.140;5.034;2023-08-06T23:41:30;14.20;94.60
43862;DHT22;29510;52.140;5.034;2023-08-06T23:51:31;14.10;99.90
